sensor_id;sensor_type;location;lat;lon;timestamp;pressure;altitude;pressure_sealevel;temperature;humidity
7052;BME280;3567;52.444;13.556;2023-01-28T00:00:30;102298.41;;;-1.74;100.00
7052;BME280;3567;52.444;13.556;2023-01-28T00:02:55;102299.38;;;-1.75;100.00
7052;BME280;3567;52.444;13.556;2023-01-28T00:05:20;102307.47;;;-1.78;100.00
7052;BME280;3567;52.444;13.556;2023-01-28T00:07:48;102301.69;;;-1.83;100.00
7052;BME280;3567;52.444;13.556;2023-01-28T00:10:14;102302.66;;;-1.84;100.00
7052;BME280;3567;52.444;13.556;2023-01-28T00:12:40;102297.59;;;-1.87;100.00
7052;BME280;3567;52.444;13.556;2023-01-28T00:15:05;102299.50;;;-1.89;100.00
7052;BME280;3567;52.444;13.556;2023-01-28T00:17:31;102305.72;;;-1.90;100.00
7052;BME280;3567;52.444;13.556;2023-01-28T00:19:56;102303.94;;;-1.90;100.00
7052;BME280;3567;52.444;13.556;2023-01-28T00:22:22;102298.78;;;-1.91;100.00
7052;BME280;3567;52.444;13.556;2023-01-28T00:24:47;102304.25;;;-1.94;100.00
7052;BME280;3567;52.444;13.556;2023-01-28T00:27:12;102310.66;;;-1.98;100.00
7052;BME280;3567;52.444;13.556;2023-01-28T00:29:38;102305.41;;;-1.98;100.00
7052;BME280;3567;52.444;13.556;2023-01-28T00:32:03;102311.50;;;-1.98;100.00
7052;BME280;3567;52.444;13.556;2023-01-28T00:34:29;102311.72;;;-2.01;100.00
7052;BME280;3567;52.444;13.556;2023-01-28T00:36:54;102318.47;;;-2.09;100.00
7052;BME280;3567;52.444;13.556;2023-01-28T00:39:24;102320.78;;;-2.18;100.00
7052;BME280;3567;52.444;13.556;2023-01-28T00:41:50;102318.69;;;-2.25;100.00
7052;BME280;3567;52.444;13.556;2023-01-28T00:44:17;102313.84;;;-2.31;100.00
7052;BME280;3567;52.444;13.556;2023-01-28T00:46:42;102317.88;;;-2.39;100.00
7052;BME280;3567;52.444;13.556;2023-01-28T00:49:08;102333.16;;;-2.45;100.00
7052;BME280;3567;52.444;13.556;2023-01-28T00:51:34;102325.72;;;-2.51;100.00
7052;BME280;3567;52.444;13.556;2023-01-28T00:53:59;102324.34;;;-2.57;100.00
7052;BME280;3567;52.444;13.556;2023-01-28T00:56:25;102325.84;;;-2.66;100.00
7052;BME280;3567;52.444;13.556;2023-01-28T00:58:50;102331.28;;;-2.69;100.00
7052;BME280;3567;52.444;13.556;2023-01-28T01:01:24;102335.03;;;-2.73;100.00
7052;BME280;3567;52.444;13.556;2023-01-28T01:03:51;102342.19;;;-2.75;100.00
7052;BME280;3567;52.444;13.556;2023-01-28T01:06:22;102338.06;;;-2.79;100.00
7052;BME280;3567;52.444;13.556;2023-01-28T01:08:48;102335.75;;;-2.83;100.00
7052;BME280;3567;52.444;13.556;2023-01-28T01:11:14;102344.56;;;-2.84;100.00
7052;BME280;3567;52.444;13.556;2023-01-28T01:13:40;102336.06;;;-2.88;100.00
7052;BME280;3567;52.444;13.556;2023-01-28T01:18:33;102328.53;;;-2.93;100.00
7052;BME280;3567;52.444;13.556;2023-01-28T01:20:59;102340.03;;;-2.95;100.00
7052;BME280;3567;52.444;13.556;2023-01-28T01:23:29;102342.75;;;-2.97;100.00
7052;BME280;3567;52.444;13.556;2023-01-28T01:25:55;102338.53;;;-2.99;100.00
7052;BME280;3567;52.444;13.556;2023-01-28T01:28:20;102332.69;;;-3.03;100.00
7052;BME280;3567;52.444;13.556;2023-01-28T01:30:47;102336.34;;;-3.05;100.00
7052;BME280;3567;52.444;13.556;2023-01-28T01:33:13;102333.72;;;-3.05;100.00
7052;BME280;3567;52.444;13.556;2023-01-28T01:35:38;102333.72;;;-3.05;100.00
7052;BME280;3567;52.444;13.556;2023-01-28T01:38:04;102328.56;;;-3.07;100.00
7052;BME280;3567;52.444;13.556;2023-01-28T01:40:29;102338.78;;;-3.02;100.00
7052;BME280;3567;52.444;13.556;2023-01-28T01:42:55;102338.53;;;-2.99;100.00
7052;BME280;3567;52.444;13.556;2023-01-28T01:45:20;102335.63;;;-2.95;100.00
7052;BME280;3567;52.444;13.556;2023-01-28T01:47:55;102338.06;;;-2.92;100.00
7052;BME280;3567;52.444;13.556;2023-01-28T01:50:36;102343.84;;;-2.86;100.00
7052;BME280;3567;52.444;13.556;2023-01-28T01:53:09;102349.69;;;-2.83;100.00
7052;BME280;3567;52.444;13.556;2023-01-28T01:55:37;102343.97;;;-2.75;100.00
7052;BME280;3567;52.444;13.556;2023-01-28T01:58:07;102352.06;;;-2.66;100.00
7052;BME280;3567;52.444;13.556;2023-01-28T02:00:34;102350.69;;;-2.58;100.00
7052;BME280;3567;52.444;13.556;2023-01-28T02:03:00;102357.97;;;-2.49;100.00
7052;BME280;3567;52.444;13.556;2023-01-28T02:05:25;102351.53;;;-2.45;100.00
7052;BME280;3567;52.444;13.556;2023-01-28T02:07:53;102339.69;;;-2.38;100.00
7052;BME280;3567;52.444;13.556;2023-01-28T02:10:20;102346.94;;;-2.29;100.00
7052;BME280;3567;52.444;13.556;2023-01-28T02:12:53;102349.16;;;-2.23;100.00
7052;BME280;3567;52.444;13.556;2023-01-28T02:15:22;102354.81;;;-2.16;100.00
7052;BME280;3567;52.444;13.556;2023-01-28T02:17:49;102350.78;;;-2.09;100.00
7052;BME280;3567;52.444;13.556;2023-01-28T02:20:22;102351.22;;;-2.02;100.00
7052;BME280;3567;52.444;13.556;2023-01-28T02:28:29;102345.63;;;-1.85;100.00
7052;BME280;3567;52.444;13.556;2023-01-28T02:36:16;102348.34;;;-1.74;100.00
7052;BME280;3567;52.444;13.556;2023-01-28T02:38:48;102355.06;;;-1.70;100.00
7052;BME280;3567;52.444;13.556;2023-01-28T02:41:21;102347.78;;;-1.66;100.00
7052;BME280;3567;52.444;13.556;2023-01-28T02:43:47;102349.38;;;-1.64;100.00
7052;BME280;3567;52.444;13.556;2023-01-28T02:49:30;102349.88;;;-1.59;100.00
7052;BME280;3567;52.444;13.556;2023-01-28T02:54:51;102347.13;;;-1.57;100.00
7052;BME280;3567;52.444;13.556;2023-01-28T03:02:46;102348.59;;;-1.53;100.00
7052;BME280;3567;52.444;13.556;2023-01-28T03:05:30;102361.63;;;-1.51;100.00
7052;BME280;3567;52.444;13.556;2023-01-28T03:08:01;102352.69;;;-1.49;100.00
7052;BME280;3567;52.444;13.556;2023-01-28T03:10:47;102353.28;;;-1.45;100.00
7052;BME280;3567;52.444;13.556;2023-01-28T03:13:32;102354.03;;;-1.43;100.00
7052;BME280;3567;52.444;13.556;2023-01-28T03:16:16;102356.66;;;-1.43;100.00
7052;BME280;3567;52.444;13.556;2023-01-28T03:19:01;102362.63;;;-1.41;100.00
7052;BME280;3567;52.444;13.556;2023-01-28T03:21:46;102353.78;;;-1.40;100.00
7052;BME280;3567;52.444;13.556;2023-01-28T03:24:43;102348.41;;;-1.39;100.00
7052;BME280;3567;52.444;13.556;2023-01-28T03:27:38;102356.09;;;-1.36;100.00
7052;BME280;3567;52.444;13.556;2023-01-28T03:30:38;102355.97;;;-1.34;100.00
7052;BME280;3567;52.444;13.556;2023-01-28T03:33:24;102347.03;;;-1.32;100.00
7052;BME280;3567;52.444;13.556;2023-01-28T03:36:09;102351.13;;;-1.27;100.00
7052;BME280;3567;52.444;13.556;2023-01-28T03:38:53;102358.78;;;-1.24;100.00
7052;BME280;3567;52.444;13.556;2023-01-28T03:41:21;102363.22;;;-1.25;100.00
7052;BME280;3567;52.444;13.556;2023-01-28T03:43:48;102357.81;;;-1.23;100.00
7052;BME280;3567;52.444;13.556;2023-01-28T03:46:14;102354.28;;;-1.22;100.00
7052;BME280;3567;52.444;13.556;2023-01-28T03:48:39;102352.34;;;-1.20;100.00
7052;BME280;3567;52.444;13.556;2023-01-28T03:51:05;102354.03;;;-1.19;100.00
7052;BME280;3567;52.444;13.556;2023-01-28T03:53:30;102352.22;;;-1.19;100.00
7052;BME280;3567;52.444;13.556;2023-01-28T03:55:55;102354.66;;;-1.16;100.00
7052;BME280;3567;52.444;13.556;2023-01-28T03:58:21;102352.03;;;-1.16;100.00
7052;BME280;3567;52.444;13.556;2023-01-28T04:00:53;102349.16;;;-1.13;100.00
7052;BME280;3567;52.444;13.556;2023-01-28T04:03:20;102353.25;;;-1.09;100.00
7052;BME280;3567;52.444;13.556;2023-01-28T04:05:59;102356.59;;;-1.07;100.00
7052;BME280;3567;52.444;13.556;2023-01-28T04:08:25;102350.41;;;-1.06;100.00
7052;BME280;3567;52.444;13.556;2023-01-28T04:10:51;102350.28;;;-1.04;100.00
7052;BME280;3567;52.444;13.556;2023-01-28T04:13:16;102348.47;;;-1.03;100.00
7052;BME280;3567;52.444;13.556;2023-01-28T04:15:43;102357.84;;;-0.99;100.00
7052;BME280;3567;52.444;13.556;2023-01-28T04:18:09;102350.66;;;-0.97;100.00
7052;BME280;3567;52.444;13.556;2023-01-28T04:20:35;102355.81;;;-0.96;100.00
7052;BME280;3567;52.444;13.556;2023-01-28T04:23:00;102346.00;;;-0.94;100.00
7052;BME280;3567;52.444;13.556;2023-01-28T04:25:26;102358.34;;;-0.94;100.00
7052;BME280;3567;52.444;13.556;2023-01-28T04:27:51;102352.94;;;-0.93;100.00
7052;BME280;3567;52.444;13.556;2023-01-28T04:30:17;102357.16;;;-0.90;100.00
7052;BME280;3567;52.444;13.556;2023-01-28T04:32:45;102355.25;;;-0.88;100.00
7052;BME280;3567;52.444;13.556;2023-01-28T04:35:10;102356.78;;;-0.86;100.00
7052;BME280;3567;52.444;13.556;2023-01-28T04:37:35;102363.63;;;-0.83;100.00
7052;BME280;3567;52.444;13.556;2023-01-28T04:40:01;102369.59;;;-0.81;100.00
7052;BME280;3567;52.444;13.556;2023-01-28T04:42:26;102363.38;;;-0.80;100.00
7052;BME280;3567;52.444;13.556;2023-01-28T04:44:51;102365.94;;;-0.78;100.00
7052;BME280;3567;52.444;13.556;2023-01-28T04:47:17;102358.63;;;-0.75;100.00
7052;BME280;3567;52.444;13.556;2023-01-28T04:49:44;102362.97;;;-0.74;100.00
7052;BME280;3567;52.444;13.556;2023-01-28T04:52:09;102365.22;;;-0.69;100.00
7052;BME280;3567;52.444;13.556;2023-01-28T04:54:35;102361.66;;;-0.68;100.00
7052;BME280;3567;52.444;13.556;2023-01-28T04:57:00;102362.50;;;-0.68;100.00
7052;BME280;3567;52.444;13.556;2023-01-28T04:59:25;102358.06;;;-0.67;100.00
7052;BME280;3567;52.444;13.556;2023-01-28T05:01:51;102357.22;;;-0.68;100.00
7052;BME280;3567;52.444;13.556;2023-01-28T05:04:16;102357.31;;;-0.69;100.00
7052;BME280;3567;52.444;13.556;2023-01-28T05:06:42;102364.16;;;-0.67;100.00
7052;BME280;3567;52.444;13.556;2023-01-28T05:09:07;102363.19;;;-0.66;100.00
7052;BME280;3567;52.444;13.556;2023-01-28T05:11:32;102357.59;;;-0.61;100.00
7052;BME280;3567;52.444;13.556;2023-01-28T05:13:58;102365.38;;;-0.60;100.00
7052;BME280;3567;52.444;13.556;2023-01-28T05:16:23;102369.66;;;-0.59;100.00
7052;BME280;3567;52.444;13.556;2023-01-28T05:18:49;102366.19;;;-0.59;100.00
7052;BME280;3567;52.444;13.556;2023-01-28T05:21:16;102380.94;;;-0.57;100.00
7052;BME280;3567;52.444;13.556;2023-01-28T05:23:41;102382.84;;;-0.59;100.00
7052;BME280;3567;52.444;13.556;2023-01-28T05:26:07;102384.75;;;-0.61;100.00
7052;BME280;3567;52.444;13.556;2023-01-28T05:28:32;102377.81;;;-0.62;100.00
7052;BME280;3567;52.444;13.556;2023-01-28T05:31:02;102387.50;;;-0.62;100.00
7052;BME280;3567;52.444;13.556;2023-01-28T05:33:28;102390.25;;;-0.64;100.00
7052;BME280;3567;52.444;13.556;2023-01-28T05:35:53;102384.75;;;-0.61;100.00
7052;BME280;3567;52.444;13.556;2023-01-28T05:38:18;102381.16;;;-0.60;100.00
7052;BME280;3567;52.444;13.556;2023-01-28T05:40:44;102386.19;;;-0.57;100.00
7052;BME280;3567;52.444;13.556;2023-01-28T05:43:09;102384.53;;;-0.58;100.00
7052;BME280;3567;52.444;13.556;2023-01-28T05:45:34;102383.56;;;-0.57;100.00
7052;BME280;3567;52.444;13.556;2023-01-28T05:48:00;102380.09;;;-0.57;100.00
7052;BME280;3567;52.444;13.556;2023-01-28T05:50:25;102375.81;;;-0.58;100.00
7052;BME280;3567;52.444;13.556;2023-01-28T05:52:50;102384.53;;;-0.58;100.00
7052;BME280;3567;52.444;13.556;2023-01-28T05:55:16;102380.94;;;-0.57;100.00
7052;BME280;3567;52.444;13.556;2023-01-28T05:57:41;102383.69;;;-0.58;100.00
7052;BME280;3567;52.444;13.556;2023-01-28T06:00:09;102388.09;;;-0.59;100.00
7052;BME280;3567;52.444;13.556;2023-01-28T06:02:35;102386.31;;;-0.58;100.00
7052;BME280;3567;52.444;13.556;2023-01-28T06:05:00;102386.19;;;-0.57;100.00
7052;BME280;3567;52.444;13.556;2023-01-28T06:07:25;102385.25;;;-0.56;100.00
7052;BME280;3567;52.444;13.556;2023-01-28T06:09:51;102388.72;;;-0.55;100.00
7052;BME280;3567;52.444;13.556;2023-01-28T06:12:16;102386.19;;;-0.57;100.00
7052;BME280;3567;52.444;13.556;2023-01-28T06:14:41;102388.09;;;-0.59;100.00
7052;BME280;3567;52.444;13.556;2023-01-28T06:17:07;102391.69;;;-0.60;100.00
7052;BME280;3567;52.444;13.556;2023-01-28T06:19:33;102386.41;;;-0.60;100.00
7052;BME280;3567;52.444;13.556;2023-01-28T06:21:58;102389.06;;;-0.60;100.00
7052;BME280;3567;52.444;13.556;2023-01-28T06:24:23;102393.34;;;-0.59;100.00
7052;BME280;3567;52.444;13.556;2023-01-28T06:26:49;102393.34;;;-0.59;100.00
7052;BME280;3567;52.444;13.556;2023-01-28T06:29:14;102390.63;;;-0.57;100.00
7052;BME280;3567;52.444;13.556;2023-01-28T06:31:39;102389.78;;;-0.58;100.00
7052;BME280;3567;52.444;13.556;2023-01-28T06:34:05;102394.09;;;-0.57;100.00
7052;BME280;3567;52.444;13.556;2023-01-28T06:36:30;102389.78;;;-0.58;100.00
7052;BME280;3567;52.444;13.556;2023-01-28T06:38:56;102391.81;;;-0.61;100.00
7052;BME280;3567;52.444;13.556;2023-01-28T06:41:21;102395.53;;;-0.64;100.00
7052;BME280;3567;52.444;13.556;2023-01-28T06:43:47;102392.91;;;-0.64;100.00
7052;BME280;3567;52.444;13.556;2023-01-28T06:46:12;102390.25;;;-0.64;100.00
7052;BME280;3567;52.444;13.556;2023-01-28T06:48:37;102396.25;;;-0.62;100.00
7052;BME280;3567;52.444;13.556;2023-01-28T06:51:03;102396.38;;;-0.63;100.00
7052;BME280;3567;52.444;13.556;2023-01-28T06:53:28;102403.41;;;-0.64;100.00
7052;BME280;3567;52.444;13.556;2023-01-28T06:55:54;102409.53;;;-0.63;100.00
7052;BME280;3567;52.444;13.556;2023-01-28T06:58:19;102402.47;;;-0.63;100.00
7052;BME280;3567;52.444;13.556;2023-01-28T07:00:45;102405.81;;;-0.61;100.00
7052;BME280;3567;52.444;13.556;2023-01-28T07:03:10;102401.38;;;-0.60;100.00
7052;BME280;3567;52.444;13.556;2023-01-28T07:05:35;102402.13;;;-0.58;100.00
7052;BME280;3567;52.444;13.556;2023-01-28T07:08:01;102402.00;;;-0.57;100.00
7052;BME280;3567;52.444;13.556;2023-01-28T07:10:27;102409.78;;;-0.55;100.00
7052;BME280;3567;52.444;13.556;2023-01-28T07:12:52;102405.34;;;-0.55;100.00
7052;BME280;3567;52.444;13.556;2023-01-28T07:15:18;102406.19;;;-0.54;100.00
7052;BME280;3567;52.444;13.556;2023-01-28T07:17:43;102413.97;;;-0.52;100.00
7052;BME280;3567;52.444;13.556;2023-01-28T07:20:11;102411.34;;;-0.52;100.00
7052;BME280;3567;52.444;13.556;2023-01-28T07:22:39;102405.13;;;-0.51;100.00
7052;BME280;3567;52.444;13.556;2023-01-28T07:25:06;102416.38;;;-0.49;100.00
7052;BME280;3567;52.444;13.556;2023-01-28T07:27:31;102419.84;;;-0.49;100.00
7052;BME280;3567;52.444;13.556;2023-01-28T07:29:57;102414.22;;;-0.44;100.00
7052;BME280;3567;52.444;13.556;2023-01-28T07:32:22;102414.97;;;-0.42;100.00
7052;BME280;3567;52.444;13.556;2023-01-28T07:34:47;102407.78;;;-0.40;100.00
7052;BME280;3567;52.444;13.556;2023-01-28T07:37:13;102410.19;;;-0.37;100.00
7052;BME280;3567;52.444;13.556;2023-01-28T07:39:39;102415.34;;;-0.36;100.00
7052;BME280;3567;52.444;13.556;2023-01-28T07:42:04;102410.91;;;-0.35;100.00
7052;BME280;3567;52.444;13.556;2023-01-28T07:44:30;102413.19;;;-0.31;100.00
7052;BME280;3567;52.444;13.556;2023-01-28T07:46:56;102412.25;;;-0.30;100.00
7052;BME280;3567;52.444;13.556;2023-01-28T07:49:21;102428.53;;;-0.24;100.00
7052;BME280;3567;52.444;13.556;2023-01-28T07:51:46;102420.50;;;-0.23;100.00
7052;BME280;3567;52.444;13.556;2023-01-28T07:54:14;102418.34;;;-0.18;100.00
7052;BME280;3567;52.444;13.556;2023-01-28T07:56:40;102414.53;;;-0.14;100.00
7052;BME280;3567;52.444;13.556;2023-01-28T07:59:05;102420.31;;;-0.09;100.00
7052;BME280;3567;52.444;13.556;2023-01-28T08:01:30;102413.00;;;-0.05;100.00
7052;BME280;3567;52.444;13.556;2023-01-28T08:03:56;102418.84;;;-0.02;100.00
7052;BME280;3567;52.444;13.556;2023-01-28T08:06:21;102415.03;;;0.03;100.00
7052;BME280;3567;52.444;13.556;2023-01-28T08:08:46;102422.59;;;0.07;100.00
7052;BME280;3567;52.444;13.556;2023-01-28T08:11:13;102426.78;;;0.10;100.00
7052;BME280;3567;52.444;13.556;2023-01-28T08:13:38;102432.78;;;0.12;100.00
7052;BME280;3567;52.444;13.556;2023-01-28T08:16:04;102424.88;;;0.12;100.00
7052;BME280;3567;52.444;13.556;2023-01-28T08:18:30;102421.03;;;0.16;100.00
7052;BME280;3567;52.444;13.556;2023-01-28T08:20:57;102425.00;;;0.21;100.00
7052;BME280;3567;52.444;13.556;2023-01-28T08:23:23;102434.47;;;0.24;100.00
7052;BME280;3567;52.444;13.556;2023-01-28T08:25:51;102430.63;;;0.28;100.00
7052;BME280;3567;52.444;13.556;2023-01-28T08:28:17;102434.81;;;0.31;99.33
7052;BME280;3567;52.444;13.556;2023-01-28T08:30:43;102431.81;;;0.35;99.81
7052;BME280;3567;52.444;13.556;2023-01-28T08:33:10;102438.41;;;0.41;100.00
7052;BME280;3567;52.444;13.556;2023-01-28T08:35:37;102439.00;;;0.44;98.61
7052;BME280;3567;52.444;13.556;2023-01-28T08:38:03;102438.53;;;0.50;99.27
7052;BME280;3567;52.444;13.556;2023-01-28T08:40:30;102451.47;;;0.54;98.62
7052;BME280;3567;52.444;13.556;2023-01-28T08:42:55;102454.81;;;0.56;97.88
7052;BME280;3567;52.444;13.556;2023-01-28T08:45:22;102455.88;;;0.53;97.18
7052;BME280;3567;52.444;13.556;2023-01-28T08:47:57;102449.06;;;0.50;97.02
7052;BME280;3567;52.444;13.556;2023-01-28T08:50:25;102456.63;;;0.55;96.76
7052;BME280;3567;52.444;13.556;2023-01-28T08:52:55;102459.00;;;0.58;96.80
7052;BME280;3567;52.444;13.556;2023-01-28T08:55:21;102449.78;;;0.64;97.13
7052;BME280;3567;52.444;13.556;2023-01-28T08:57:46;102460.09;;;0.67;96.21
7052;BME280;3567;52.444;13.556;2023-01-28T09:00:12;102461.88;;;0.66;95.03
7052;BME280;3567;52.444;13.556;2023-01-28T09:02:38;102460.78;;;0.69;95.41
7052;BME280;3567;52.444;13.556;2023-01-28T09:05:04;102468.47;;;0.72;95.58
7052;BME280;3567;52.444;13.556;2023-01-28T09:07:30;102463.91;;;0.74;95.79
7052;BME280;3567;52.444;13.556;2023-01-28T09:09:56;102476.16;;;0.75;94.83
7052;BME280;3567;52.444;13.556;2023-01-28T09:12:22;102475.91;;;0.78;93.60
7052;BME280;3567;52.444;13.556;2023-01-28T09:14:47;102482.00;;;0.78;93.95
7052;BME280;3567;52.444;13.556;2023-01-28T09:17:12;102477.06;;;0.85;94.20
7052;BME280;3567;52.444;13.556;2023-01-28T09:19:38;102481.88;;;0.91;93.89
7052;BME280;3567;52.444;13.556;2023-01-28T09:22:03;102475.38;;;0.95;94.83
7052;BME280;3567;52.444;13.556;2023-01-28T09:24:29;102489.31;;;0.97;93.97
7052;BME280;3567;52.444;13.556;2023-01-28T09:26:54;102496.03;;;1.01;93.65
7052;BME280;3567;52.444;13.556;2023-01-28T09:29:20;102496.50;;;1.07;93.62
7052;BME280;3567;52.444;13.556;2023-01-28T09:31:45;102499.00;;;1.08;93.67
7052;BME280;3567;52.444;13.556;2023-01-28T09:34:11;102505.13;;;1.09;92.00
7052;BME280;3567;52.444;13.556;2023-01-28T09:36:36;102504.63;;;1.15;92.39
7052;BME280;3567;52.444;13.556;2023-01-28T09:39:02;102498.28;;;1.17;91.59
7052;BME280;3567;52.444;13.556;2023-01-28T09:44:07;102495.47;;;1.30;90.84
7052;BME280;3567;52.444;13.556;2023-01-28T09:46:37;102483.56;;;1.36;90.88
7052;BME280;3567;52.444;13.556;2023-01-28T09:49:11;102489.31;;;1.41;90.56
7052;BME280;3567;52.444;13.556;2023-01-28T09:51:46;102494.91;;;1.47;89.62
7052;BME280;3567;52.444;13.556;2023-01-28T09:55:11;102496.22;;;1.53;89.63
7052;BME280;3567;52.444;13.556;2023-01-28T09:57:26;102496.81;;;1.56;89.22
7052;BME280;3567;52.444;13.556;2023-01-28T09:59:56;102500.06;;;1.60;88.69
7052;BME280;3567;52.444;13.556;2023-01-28T10:07:43;102499.78;;;1.63;85.98
7052;BME280;3567;52.444;13.556;2023-01-28T10:10:15;102499.66;;;1.65;86.67
7052;BME280;3567;52.444;13.556;2023-01-28T10:18:46;102498.19;;;1.72;84.68
7052;BME280;3567;52.444;13.556;2023-01-28T10:21:19;102493.59;;;1.74;84.43
7052;BME280;3567;52.444;13.556;2023-01-28T10:23:56;102488.09;;;1.77;83.89
7052;BME280;3567;52.444;13.556;2023-01-28T10:26:43;102495.03;;;1.78;83.26
7052;BME280;3567;52.444;13.556;2023-01-28T10:29:32;102484.00;;;1.73;82.79
7052;BME280;3567;52.444;13.556;2023-01-28T10:32:20;102477.63;;;1.75;83.25
7052;BME280;3567;52.444;13.556;2023-01-28T10:34:47;102492.41;;;1.78;82.43
7052;BME280;3567;52.444;13.556;2023-01-28T10:37:14;102488.78;;;1.79;82.11
7052;BME280;3567;52.444;13.556;2023-01-28T10:39:40;102481.81;;;1.78;81.82
7052;BME280;3567;52.444;13.556;2023-01-28T10:42:26;102490.00;;;1.75;81.35
7052;BME280;3567;52.444;13.556;2023-01-28T10:44:56;102484.00;;;1.73;82.15
7052;BME280;3567;52.444;13.556;2023-01-28T10:47:31;102484.00;;;1.73;81.55
7052;BME280;3567;52.444;13.556;2023-01-28T10:49:59;102475.38;;;1.71;80.63
7052;BME280;3567;52.444;13.556;2023-01-28T10:52:25;102476.59;;;1.67;80.11
7052;BME280;3567;52.444;13.556;2023-01-28T10:55:03;102473.97;;;1.67;80.14
7052;BME280;3567;52.444;13.556;2023-01-28T10:57:28;102481.63;;;1.70;80.92
7052;BME280;3567;52.444;13.556;2023-01-28T10:59:54;102480.41;;;1.74;80.87
7052;BME280;3567;52.444;13.556;2023-01-28T11:05:21;102491.81;;;1.74;80.19
7052;BME280;3567;52.444;13.556;2023-01-28T11:07:50;102484.84;;;1.73;80.60
7052;BME280;3567;52.444;13.556;2023-01-28T11:10:30;102481.38;;;1.73;80.68
7052;BME280;3567;52.444;13.556;2023-01-28T11:12:57;102478.72;;;1.73;80.32
7052;BME280;3567;52.444;13.556;2023-01-28T11:15:23;102484.16;;;1.71;79.22
7052;BME280;3567;52.444;13.556;2023-01-28T11:17:54;102482.06;;;1.75;79.96
7052;BME280;3567;52.444;13.556;2023-01-28T11:20:25;102470.66;;;1.74;79.14
7052;BME280;3567;52.444;13.556;2023-01-28T11:22:51;102471.78;;;1.72;78.01
7052;BME280;3567;52.444;13.556;2023-01-28T11:27:53;102482.25;;;1.62;78.40
7052;BME280;3567;52.444;13.556;2023-01-28T11:30:25;102472.53;;;1.63;78.31
7052;BME280;3567;52.444;13.556;2023-01-28T11:32:56;102468.91;;;1.64;79.37
7052;BME280;3567;52.444;13.556;2023-01-28T11:35:28;102466.88;;;1.67;79.80
7052;BME280;3567;52.444;13.556;2023-01-28T11:37:56;102468.41;;;1.70;79.03
7052;BME280;3567;52.444;13.556;2023-01-28T11:40:22;102469.13;;;1.72;79.13
7052;BME280;3567;52.444;13.556;2023-01-28T11:42:53;102453.97;;;1.74;78.59
7052;BME280;3567;52.444;13.556;2023-01-28T11:48:10;102449.53;;;1.74;78.24
7052;BME280;3567;52.444;13.556;2023-01-28T11:50:48;102453.38;;;1.70;77.22
7052;BME280;3567;52.444;13.556;2023-01-28T11:53:41;102456.16;;;1.69;76.89
7052;BME280;3567;52.444;13.556;2023-01-28T11:59:01;102439.47;;;1.68;77.22
7052;BME280;3567;52.444;13.556;2023-01-28T12:07:29;102431.19;;;1.73;76.45
7052;BME280;3567;52.444;13.556;2023-01-28T12:10:11;102434.06;;;1.70;76.88
7052;BME280;3567;52.444;13.556;2023-01-28T12:12:57;102428.78;;;1.70;76.49
7052;BME280;3567;52.444;13.556;2023-01-28T12:15:38;102436.69;;;1.70;76.44
7052;BME280;3567;52.444;13.556;2023-01-28T12:21:05;102435.03;;;1.69;77.03
7052;BME280;3567;52.444;13.556;2023-01-28T12:26:10;102423.94;;;1.75;77.00
7052;BME280;3567;52.444;13.556;2023-01-28T12:29:06;102429.22;;;1.75;76.50
7052;BME280;3567;52.444;13.556;2023-01-28T12:31:47;102423.94;;;1.75;77.15
7052;BME280;3567;52.444;13.556;2023-01-28T12:37:05;102420.59;;;1.73;77.38
7052;BME280;3567;52.444;13.556;2023-01-28T12:39:54;102422.56;;;1.71;77.10
7052;BME280;3567;52.444;13.556;2023-01-28T12:45:17;102418.22;;;1.70;77.68
7052;BME280;3567;52.444;13.556;2023-01-28T12:47:50;102419.19;;;1.69;76.45
7052;BME280;3567;52.444;13.556;2023-01-28T12:50:47;102415.84;;;1.67;77.34
7052;BME280;3567;52.444;13.556;2023-01-28T12:53:38;102423.91;;;1.65;77.38
7052;BME280;3567;52.444;13.556;2023-01-28T12:56:07;102414.19;;;1.66;77.79
7052;BME280;3567;52.444;13.556;2023-01-28T12:58:46;102405.53;;;1.64;78.39
7052;BME280;3567;52.444;13.556;2023-01-28T13:01:19;102422.22;;;1.64;78.45
7052;BME280;3567;52.444;13.556;2023-01-28T13:04:00;102413.59;;;1.62;79.26
7052;BME280;3567;52.444;13.556;2023-01-28T13:06:39;102415.25;;;1.63;79.30
7052;BME280;3567;52.444;13.556;2023-01-28T13:09:15;102414.19;;;1.66;79.73
7052;BME280;3567;52.444;13.556;2023-01-28T13:11:42;102404.56;;;1.65;80.83
7052;BME280;3567;52.444;13.556;2023-01-28T13:14:10;102403.59;;;1.66;80.35
7052;BME280;3567;52.444;13.556;2023-01-28T13:16:36;102397.34;;;1.67;80.43
7052;BME280;3567;52.444;13.556;2023-01-28T13:21:42;102401.66;;;1.68;80.93
7052;BME280;3567;52.444;13.556;2023-01-28T13:26:54;102385.69;;;1.69;81.08
7052;BME280;3567;52.444;13.556;2023-01-28T13:31:49;102384.16;;;1.67;81.34
7052;BME280;3567;52.444;13.556;2023-01-28T13:36:58;102382.59;;;1.64;81.32
7052;BME280;3567;52.444;13.556;2023-01-28T13:39:25;102382.47;;;1.66;82.20
7052;BME280;3567;52.444;13.556;2023-01-28T13:44:37;102385.59;;;1.60;81.75
7052;BME280;3567;52.444;13.556;2023-01-28T13:47:41;102386.59;;;1.58;82.36
7052;BME280;3567;52.444;13.556;2023-01-28T13:50:14;102382.97;;;1.60;82.08
7052;BME280;3567;52.444;13.556;2023-01-28T13:52:49;102372.53;;;1.58;81.73
7052;BME280;3567;52.444;13.556;2023-01-28T13:55:20;102370.72;;;1.58;81.44
7052;BME280;3567;52.444;13.556;2023-01-28T14:00:20;102381.88;;;1.62;81.81
7052;BME280;3567;52.444;13.556;2023-01-28T14:05:58;102379.84;;;1.66;81.93
7052;BME280;3567;52.444;13.556;2023-01-28T14:16:52;102371.25;;;1.73;81.56
7052;BME280;3567;52.444;13.556;2023-01-28T14:19:27;102370.84;;;1.78;81.58
7052;BME280;3567;52.444;13.556;2023-01-28T14:21:54;102385.50;;;1.82;82.44
7052;BME280;3567;52.444;13.556;2023-01-28T14:24:20;102380.06;;;1.83;82.13
7052;BME280;3567;52.444;13.556;2023-01-28T14:26:55;102361.97;;;1.79;81.53
7052;BME280;3567;52.444;13.556;2023-01-28T14:32:15;102343.59;;;1.77;81.55
7052;BME280;3567;52.444;13.556;2023-01-28T14:34:42;102349.44;;;1.81;81.37
7052;BME280;3567;52.444;13.556;2023-01-28T14:37:11;102342.25;;;1.83;81.51
7052;BME280;3567;52.444;13.556;2023-01-28T14:39:44;102344.34;;;1.89;81.00
7052;BME280;3567;52.444;13.556;2023-01-28T14:42:22;102346.84;;;1.91;81.58
7052;BME280;3567;52.444;13.556;2023-01-28T14:57:55;102382.13;;;1.80;81.21